createdAt,value
2022-09-23T00:01:22.299Z,67.26
2022-09-23T00:03:50.511Z,67.29
2022-09-23T00:06:20.541Z,67.57
2022-09-23T00:08:49.821Z,67.44
2022-09-23T00:11:28.497Z,67.65
2022-09-23T00:13:58.478Z,67.78
2022-09-23T00:16:30.091Z,67.88
2022-09-23T00:18:58.449Z,67.73
2022-09-23T00:21:26.194Z,67.90
2022-09-23T00:23:53.943Z,67.86
2022-09-23T00:26:23.139Z,67.91
2022-09-23T00:28:51.270Z,67.85
2022-09-23T00:31:21.802Z,67.91
2022-09-23T00:33:55.277Z,67.77
2022-09-23T00:36:23.901Z,67.92
2022-09-23T00:38:51.813Z,67.93
2022-09-23T00:41:20.001Z,67.83
2022-09-23T00:43:47.734Z,67.81
2022-09-23T00:46:19.649Z,67.97
2022-09-23T00:48:48.912Z,68.01
2022-09-23T00:51:20.985Z,68.13
2022-09-23T00:53:50.461Z,68.07
2022-09-23T00:56:20.316Z,68.11
2022-09-23T00:58:49.973Z,68.25
2022-09-23T01:01:17.842Z,68.14
2022-09-23T01:03:47.416Z,68.26
2022-09-23T01:06:15.529Z,68.23
2022-09-23T01:08:44.838Z,68.28
2022-09-23T01:11:24.490Z,68.30
2022-09-23T01:13:56.191Z,68.26
2022-09-23T01:16:52.505Z,68.30
2022-09-23T01:19:43.127Z,68.58
2022-09-23T01:22:10.868Z,68.49
2022-09-23T01:24:47.629Z,68.51
2022-09-23T01:27:30.547Z,68.49
2022-09-23T01:30:20.083Z,68.65
2022-09-23T01:33:11.239Z,68.50
2022-09-23T01:35:47.752Z,68.69
2022-09-23T01:38:36.943Z,68.72
2022-09-23T01:41:16.275Z,68.61
2022-09-23T01:43:54.601Z,68.80
2022-09-23T01:46:51.969Z,68.87
2022-09-23T01:49:25.615Z,68.96
2022-09-23T01:51:58.705Z,69.03
2022-09-23T01:54:34.363Z,69.05
2022-09-23T01:57:13.080Z,69.16
2022-09-23T01:59:45.548Z,69.19
2022-09-23T02:02:22.014Z,69.28
2022-09-23T02:05:16.220Z,69.18
2022-09-23T02:07:52.226Z,69.35
2022-09-23T02:10:24.463Z,69.37
2022-09-23T02:12:57.258Z,69.42
2022-09-23T02:15:34.007Z,69.17
2022-09-23T02:18:15.370Z,69.16
2022-09-23T02:20:43.559Z,69.19
2022-09-23T02:23:22.514Z,69.17
2022-09-23T02:26:08.545Z,69.19
2022-09-23T02:28:55.171Z,69.35
2022-09-23T02:32:01.608Z,69.19
2022-09-23T02:34:38.158Z,69.21
2022-09-23T02:37:21.419Z,69.26
2022-09-23T02:39:51.756Z,69.33
2022-09-23T02:42:23.539Z,69.38
2022-09-23T02:44:51.525Z,69.34
2022-09-23T02:47:24.187Z,69.38
2022-09-23T02:49:53.314Z,69.32
2022-09-23T02:52:21.236Z,69.41
2022-09-23T02:54:49.185Z,69.46
2022-09-23T02:57:17.453Z,69.48
2022-09-23T02:59:46.799Z,69.57
2022-09-23T03:02:21.617Z,69.54
2022-09-23T03:05:23.834Z,69.69
2022-09-23T03:07:59.565Z,69.76
2022-09-23T03:10:37.816Z,69.77
2022-09-23T03:13:47.003Z,69.84
2022-09-23T03:16:39.341Z,69.86
2022-09-23T03:19:27.569Z,70.07
2022-09-23T03:22:11.904Z,70.06
2022-09-23T03:24:40.260Z,70.01
2022-09-23T03:27:13.777Z,70.10
2022-09-23T03:29:45.658Z,70.04
2022-09-23T03:32:15.172Z,70.19
2022-09-23T03:34:44.666Z,70.28
2022-09-23T03:37:36.123Z,70.29
2022-09-23T03:40:12.304Z,70.17
2022-09-23T03:42:40.422Z,70.20
2022-09-23T03:45:13.045Z,70.24
2022-09-23T03:47:42.307Z,70.36
2022-09-23T03:50:10.733Z,70.33
2022-09-23T03:52:39.773Z,70.44
2022-09-23T03:55:08.241Z,70.39
2022-09-23T03:57:37.042Z,70.31
2022-09-23T04:00:06.847Z,70.33
2022-09-23T04:02:39.577Z,70.43
2022-09-23T04:05:08.255Z,70.53
2022-09-23T04:07:36.187Z,70.50
2022-09-23T04:10:05.255Z,70.59
2022-09-23T04:12:33.313Z,70.61
2022-09-23T04:15:01.196Z,70.80
2022-09-23T04:17:29.002Z,70.88
2022-09-23T04:19:56.698Z,70.83
2022-09-23T04:22:24.593Z,70.88
2022-09-23T04:24:52.288Z,70.88
2022-09-23T04:27:20.362Z,71.12
2022-09-23T04:29:48.183Z,71.04
2022-09-23T04:32:15.884Z,70.91
2022-09-23T04:34:43.574Z,71.04
2022-09-23T04:37:11.376Z,71.08
2022-09-23T04:39:39.917Z,71.08
2022-09-23T04:42:08.080Z,71.17
2022-09-23T04:44:36.688Z,71.08
2022-09-23T04:47:04.883Z,71.22
2022-09-23T04:49:33.672Z,71.22
2022-09-23T04:52:02.868Z,71.29
2022-09-23T04:54:30.695Z,71.32
2022-09-23T04:56:58.946Z,71.43
2022-09-23T04:59:26.761Z,71.22
2022-09-23T05:01:55.462Z,71.41
2022-09-23T05:04:23.404Z,71.35
2022-09-23T05:06:51.252Z,71.20
2022-09-23T05:09:19.301Z,71.43
2022-09-23T05:11:47.213Z,71.40
2022-09-23T05:14:15.056Z,71.38
2022-09-23T05:16:43.028Z,71.43
2022-09-23T05:19:13.430Z,71.53
2022-09-23T05:21:41.344Z,71.52
2022-09-23T05:24:09.933Z,71.56
2022-09-23T05:26:38.419Z,71.51
2022-09-23T05:29:06.338Z,71.50
2022-09-23T05:31:35.067Z,71.37
2022-09-23T05:34:05.032Z,71.44
2022-09-23T05:36:38.393Z,71.50
2022-09-23T05:39:07.777Z,71.36
2022-09-23T05:41:36.420Z,71.32
2022-09-23T05:44:04.479Z,71.43
2022-09-23T05:46:33.270Z,71.50
2022-09-23T05:49:03.450Z,71.51
2022-09-23T05:51:33.765Z,71.43
2022-09-23T05:54:04.138Z,71.32
2022-09-23T05:56:33.472Z,71.38
2022-09-23T05:59:02.702Z,71.13
2022-09-23T06:01:33.719Z,71.27
2022-09-23T06:04:04.031Z,71.33
2022-09-23T06:06:40.145Z,71.24
2022-09-23T06:09:13.913Z,71.24
2022-09-23T06:11:43.045Z,71.12
2022-09-23T06:14:12.871Z,71.00
2022-09-23T06:16:41.015Z,71.00
2022-09-23T06:19:09.977Z,71.02
2022-09-23T06:21:39.438Z,71.11
2022-09-23T06:24:08.164Z,71.10
2022-09-23T06:26:37.881Z,70.95
2022-09-23T06:29:14.613Z,70.99
2022-09-23T06:31:43.337Z,70.77
2022-09-23T06:34:13.681Z,70.73
2022-09-23T06:36:46.335Z,70.62
2022-09-23T06:39:15.512Z,70.31
2022-09-23T06:41:46.427Z,70.05
2022-09-23T06:44:16.675Z,70.10
2022-09-23T06:46:44.549Z,69.96
2022-09-23T06:49:13.839Z,69.77
2022-09-23T06:51:41.980Z,70.08
2022-09-23T06:54:11.181Z,70.38
2022-09-23T06:56:40.002Z,70.62
2022-09-23T06:59:10.827Z,70.49
2022-09-23T07:01:39.961Z,70.00
2022-09-23T07:04:08.627Z,69.85
2022-09-23T07:06:37.281Z,69.37
2022-09-23T07:09:08.042Z,69.49
2022-09-23T07:11:35.921Z,69.29
2022-09-23T07:14:03.811Z,69.29
2022-09-23T07:16:33.053Z,69.27
2022-09-23T07:19:00.844Z,69.28
2022-09-23T07:21:28.927Z,68.83
2022-09-23T07:23:58.277Z,68.45
2022-09-23T07:26:26.174Z,68.52
2022-09-23T07:28:57.836Z,68.21
2022-09-23T07:31:37.211Z,68.23
2022-09-23T07:34:08.635Z,68.37
2022-09-23T07:36:40.851Z,68.15
2022-09-23T07:39:11.340Z,67.80
2022-09-23T07:41:39.505Z,67.88
2022-09-23T07:44:08.894Z,67.33
2022-09-23T07:46:37.285Z,67.21
2022-09-23T07:49:06.242Z,67.20
2022-09-23T07:51:37.007Z,67.04
2022-09-23T07:54:09.939Z,66.92
2022-09-23T07:56:38.629Z,66.90
2022-09-23T07:59:08.989Z,66.60
2022-09-23T08:01:41.225Z,66.76
2022-09-23T08:04:13.801Z,65.84
2022-09-23T08:06:46.443Z,66.09
2022-09-23T08:09:16.328Z,66.90
2022-09-23T08:11:45.260Z,69.10
2022-09-23T08:14:15.221Z,67.83
2022-09-23T08:16:44.831Z,65.64
2022-09-23T08:19:13.201Z,63.71
2022-09-23T08:21:41.827Z,62.34
2022-09-23T08:24:14.312Z,60.69
2022-09-23T08:26:43.083Z,58.72
2022-09-23T08:29:15.636Z,56.42
2022-09-23T08:31:44.045Z,54.53
2022-09-23T08:34:11.942Z,53.10
2022-09-23T08:36:39.636Z,51.30
2022-09-23T08:39:12.584Z,49.35
2022-09-23T08:41:59.455Z,46.80
2022-09-23T08:44:34.818Z,44.63
2022-09-23T08:47:10.547Z,42.19
2022-09-23T08:50:01.479Z,39.96
2022-09-23T08:52:36.436Z,37.23
2022-09-23T08:55:04.589Z,35.21
2022-09-23T08:57:36.667Z,33.61
2022-09-23T09:00:05.115Z,31.83
2022-09-23T09:02:34.754Z,30.06
2022-09-23T09:05:06.538Z,28.19
2022-09-23T09:07:37.838Z,26.90
2022-09-23T09:10:39.206Z,25.78
2022-09-23T09:13:17.024Z,25.08
2022-09-23T09:15:58.660Z,25.48
2022-09-23T09:18:30.991Z,24.63
2022-09-23T09:21:14.490Z,24.69
2022-09-23T09:23:55.046Z,24.38
2022-09-23T09:26:25.964Z,23.75
2022-09-23T09:29:17.240Z,22.82
2022-09-23T09:31:51.020Z,22.53
2022-09-23T09:34:31.002Z,23.07
2022-09-23T09:37:07.167Z,23.24
2022-09-23T09:39:36.435Z,22.58
2022-09-23T09:42:06.799Z,21.98
2022-09-23T09:44:37.095Z,21.02
2022-09-23T09:47:28.774Z,20.36
2022-09-23T09:50:11.895Z,19.65
2022-09-23T09:52:42.402Z,19.31
2022-09-23T09:55:13.324Z,18.59
2022-09-23T09:57:48.405Z,17.82
2022-09-23T10:00:35.779Z,17.56
2022-09-23T10:03:05.063Z,17.18
2022-09-23T10:05:34.361Z,17.06
2022-09-23T10:08:35.234Z,16.91
2022-09-23T10:11:08.209Z,17.69
2022-09-23T10:13:36.782Z,17.67
2022-09-23T10:16:05.050Z,17.66
2022-09-23T10:18:49.549Z,17.41
2022-09-23T10:21:25.477Z,18.18
2022-09-23T10:23:55.153Z,18.69
2022-09-23T10:26:32.470Z,19.29
2022-09-23T10:29:24.736Z,19.17
2022-09-23T10:32:17.332Z,19.80
2022-09-23T10:34:47.999Z,20.14
2022-09-23T10:37:27.760Z,20.66
2022-09-23T10:40:14.245Z,20.90
2022-09-23T10:43:13.189Z,20.75
2022-09-23T10:46:06.836Z,20.76
2022-09-23T10:48:37.839Z,21.36
2022-09-23T10:51:26.396Z,21.86
2022-09-23T10:54:13.365Z,22.46
2022-09-23T10:57:40.730Z,22.46
2022-09-23T11:00:30.412Z,23.29
2022-09-23T11:03:19.585Z,23.90
2022-09-23T11:06:11.287Z,24.15
2022-09-23T11:09:11.294Z,23.96
2022-09-23T11:12:01.279Z,24.46
2022-09-23T11:14:47.154Z,24.80
2022-09-23T11:17:27.200Z,24.91
2022-09-23T11:19:58.043Z,25.48
2022-09-23T11:22:36.088Z,25.88
2022-09-23T11:25:16.830Z,26.20
2022-09-23T11:27:58.737Z,26.64
2022-09-23T11:30:37.308Z,27.26
2022-09-23T11:33:05.718Z,26.97
2022-09-23T11:35:51.300Z,26.98
2022-09-23T11:38:29.525Z,26.84
2022-09-23T11:41:15.747Z,26.94
2022-09-23T11:43:44.589Z,27.26
2022-09-23T11:46:23.602Z,27.72
2022-09-23T11:49:22.749Z,27.91
2022-09-23T11:51:50.508Z,28.49
2022-09-23T11:54:24.520Z,28.96
2022-09-23T11:56:54.549Z,28.98
2022-09-23T11:59:38.250Z,29.08
2022-09-23T12:02:30.603Z,29.36
2022-09-23T12:05:14.127Z,29.68
2022-09-23T12:08:09.795Z,29.75
2022-09-23T12:10:41.840Z,29.87
2022-09-23T12:13:19.178Z,29.69
2022-09-23T12:16:26.303Z,29.63
2022-09-23T12:19:32.489Z,29.88
2022-09-23T12:22:36.629Z,29.60
2022-09-23T12:25:46.669Z,29.86
2022-09-23T12:28:20.735Z,29.70
2022-09-23T12:30:49.871Z,29.95
2022-09-23T12:33:27.386Z,30.27
2022-09-23T12:36:09.708Z,30.43
2022-09-23T12:38:57.728Z,30.53
2022-09-23T12:41:37.459Z,30.74
2022-09-23T12:44:12.033Z,31.05
2022-09-23T12:46:46.859Z,31.25
2022-09-23T12:49:30.009Z,31.55
2022-09-23T12:52:13.507Z,31.81
2022-09-23T12:54:42.948Z,31.86
2022-09-23T12:57:12.916Z,32.05
2022-09-23T12:59:58.531Z,32.17
2022-09-23T13:02:29.897Z,32.53
2022-09-23T13:05:22.863Z,32.84
2022-09-23T13:07:51.532Z,33.00
2022-09-23T13:10:25.076Z,33.15
2022-09-23T13:12:53.401Z,33.41
2022-09-23T13:15:26.319Z,33.70
2022-09-23T13:18:22.783Z,33.92
2022-09-23T13:20:52.083Z,34.19
2022-09-23T13:23:24.253Z,34.27
2022-09-23T13:25:58.029Z,34.37
2022-09-23T13:28:42.318Z,34.66
2022-09-23T13:31:15.153Z,34.70
2022-09-23T13:33:46.306Z,34.72
2022-09-23T13:36:17.130Z,34.76
2022-09-23T13:38:49.188Z,35.05
2022-09-23T13:41:20.751Z,35.28
2022-09-23T13:43:58.819Z,35.36
2022-09-23T13:46:30.124Z,35.67
2022-09-23T13:48:58.089Z,35.68
2022-09-23T13:51:33.354Z,36.00
2022-09-23T13:54:03.123Z,36.08
2022-09-23T13:56:33.116Z,36.24
2022-09-23T13:59:24.935Z,36.44
2022-09-23T14:02:12.333Z,36.88
2022-09-23T14:04:40.587Z,36.80
2022-09-23T14:07:10.218Z,37.06
2022-09-23T14:09:42.279Z,37.28
2022-09-23T14:12:10.735Z,37.55
2022-09-23T14:14:40.510Z,37.46
2022-09-23T14:17:08.970Z,37.69
2022-09-23T14:19:37.315Z,38.06
2022-09-23T14:22:09.195Z,38.02
2022-09-23T14:24:39.649Z,38.13
2022-09-23T14:27:08.019Z,37.83
2022-09-23T14:29:38.866Z,37.74
2022-09-23T14:32:21.042Z,37.75
2022-09-23T14:34:49.949Z,37.72
2022-09-23T14:37:54.632Z,38.00
2022-09-23T14:40:29.537Z,38.02
2022-09-23T14:43:28.955Z,38.13
2022-09-23T14:45:57.954Z,38.23
2022-09-23T14:48:31.061Z,38.32
2022-09-23T14:51:04.459Z,38.30
2022-09-23T14:53:34.705Z,38.19
2022-09-23T14:56:22.327Z,38.47
2022-09-23T14:59:00.704Z,38.54
2022-09-23T15:01:34.908Z,38.48
2022-09-23T15:04:13.156Z,38.70
2022-09-23T15:06:46.865Z,38.78
2022-09-23T15:09:23.997Z,39.01
2022-09-23T15:11:53.699Z,38.96
2022-09-23T15:14:37.090Z,39.05
2022-09-23T15:17:15.228Z,39.40
2022-09-23T15:19:43.065Z,39.51
2022-09-23T15:22:11.215Z,39.54
2022-09-23T15:24:45.991Z,39.78
2022-09-23T15:27:26.395Z,39.88
2022-09-23T15:29:54.472Z,40.04
2022-09-23T15:32:22.505Z,40.13
2022-09-23T15:34:51.315Z,40.15
2022-09-23T15:37:19.159Z,40.35
2022-09-23T15:39:48.353Z,40.55
2022-09-23T15:42:18.338Z,40.76
2022-09-23T15:44:46.260Z,40.91
2022-09-23T15:47:18.945Z,40.90
2022-09-23T15:49:47.328Z,41.18
2022-09-23T15:52:16.069Z,41.37
2022-09-23T15:54:44.755Z,41.78
2022-09-23T15:57:12.955Z,42.17
2022-09-23T15:59:41.672Z,42.22
2022-09-23T16:02:16.711Z,42.45
2022-09-23T16:04:47.322Z,42.64
2022-09-23T16:07:17.126Z,43.11
2022-09-23T16:09:44.961Z,43.35
2022-09-23T16:12:13.211Z,43.46
2022-09-23T16:14:41.016Z,43.69
2022-09-23T16:17:13.167Z,44.00
2022-09-23T16:19:41.056Z,44.18
2022-09-23T16:22:10.495Z,44.48
2022-09-23T16:24:38.228Z,44.64
2022-09-23T16:27:07.812Z,44.96
2022-09-23T16:29:35.892Z,45.10
2022-09-23T16:32:04.296Z,45.30
2022-09-23T16:34:34.870Z,45.65
2022-09-23T16:37:04.743Z,45.90
2022-09-23T16:39:32.789Z,46.15
2022-09-23T16:42:00.763Z,46.35
2022-09-23T16:44:28.633Z,46.52
2022-09-23T16:46:57.799Z,46.71
2022-09-23T16:49:27.436Z,46.82
2022-09-23T16:51:55.287Z,47.10
2022-09-23T16:54:23.896Z,47.34
2022-09-23T16:56:52.239Z,47.60
2022-09-23T16:59:20.178Z,47.72
2022-09-23T17:02:06.792Z,48.00
2022-09-23T17:04:34.684Z,48.27
2022-09-23T17:07:02.748Z,48.45
2022-09-23T17:09:31.897Z,48.63
2022-09-23T17:12:34.705Z,48.76
2022-09-23T17:15:07.444Z,49.05
2022-09-23T17:17:39.381Z,49.32
2022-09-23T17:20:07.606Z,49.45
2022-09-23T17:22:35.459Z,49.62
2022-09-23T17:25:03.923Z,49.82
2022-09-23T17:27:32.073Z,50.09
2022-09-23T17:29:59.808Z,50.16
2022-09-23T17:32:27.912Z,50.40
2022-09-23T17:34:55.695Z,50.48
2022-09-23T17:37:23.572Z,50.63
2022-09-23T17:39:51.746Z,50.82
2022-09-23T17:44:01.683Z,51.09
2022-09-23T17:46:31.027Z,51.34
2022-09-23T17:48:58.813Z,51.45
2022-09-23T17:51:27.820Z,51.54
2022-09-23T17:53:55.790Z,51.75
2022-09-23T17:56:25.646Z,51.89
2022-09-23T17:58:54.148Z,51.97
2022-09-23T18:01:24.943Z,52.30
2022-09-23T18:03:57.620Z,52.32
2022-09-23T18:06:28.885Z,52.49
2022-09-23T18:08:58.309Z,52.66
2022-09-23T18:11:27.406Z,52.86
2022-09-23T18:14:01.190Z,52.97
2022-09-23T18:16:31.527Z,53.10
2022-09-23T18:19:00.952Z,53.39
2022-09-23T18:21:31.784Z,53.49
2022-09-23T18:26:52.905Z,53.69
2022-09-23T18:29:20.716Z,53.81
2022-09-23T18:31:49.403Z,54.05
2022-09-23T18:34:17.470Z,54.12
2022-09-23T18:36:45.774Z,54.34
2022-09-23T18:39:15.012Z,54.48
2022-09-23T18:41:43.384Z,54.73
2022-09-23T18:44:11.351Z,54.69
2022-09-23T18:46:39.677Z,54.98
2022-09-23T18:49:26.334Z,54.97
2022-09-23T18:51:56.641Z,54.96
2022-09-23T18:54:28.124Z,55.14
2022-09-23T18:56:56.663Z,55.19
2022-09-23T18:59:28.031Z,55.38
2022-09-23T19:01:57.922Z,55.38
2022-09-23T19:04:27.361Z,55.52
2022-09-23T19:06:56.771Z,55.44
2022-09-23T19:09:25.453Z,55.53
2022-09-23T19:11:53.778Z,55.68
2022-09-23T19:14:21.619Z,55.69
2022-09-23T19:16:50.627Z,55.73
2022-09-23T19:19:18.599Z,55.85
2022-09-23T19:21:46.650Z,56.00
2022-09-23T19:24:19.921Z,56.02
2022-09-23T19:26:48.864Z,56.11
2022-09-23T19:29:19.604Z,56.14
2022-09-23T19:31:48.776Z,56.30
2022-09-23T19:34:19.985Z,56.30
2022-09-23T19:36:48.606Z,56.46
2022-09-23T19:39:17.501Z,56.30
2022-09-23T19:41:46.815Z,56.47
2022-09-23T19:44:15.269Z,56.42
2022-09-23T19:46:45.547Z,56.55
2022-09-23T19:49:13.795Z,56.58
2022-09-23T19:51:44.041Z,56.53
2022-09-23T19:54:14.526Z,56.57
2022-09-23T19:56:43.307Z,56.72
2022-09-23T19:59:14.168Z,56.79
2022-09-23T20:01:46.861Z,56.84
2022-09-23T20:04:15.865Z,56.85
2022-09-23T20:06:45.839Z,56.91
2022-09-23T20:09:14.110Z,56.97
2022-09-23T20:11:44.352Z,57.11
2022-09-23T20:14:13.013Z,57.06
2022-09-23T20:16:41.147Z,57.16
2022-09-23T20:19:09.837Z,57.29
2022-09-23T20:21:37.667Z,57.23
2022-09-23T20:24:07.569Z,57.46
2022-09-23T20:26:54.201Z,57.47
2022-09-23T20:29:23.789Z,57.48
2022-09-23T20:31:51.705Z,57.61
2022-09-23T20:34:20.442Z,57.54
2022-09-23T20:36:48.575Z,57.78
2022-09-23T20:39:16.336Z,57.82
2022-09-23T20:41:44.677Z,57.91
2022-09-23T20:44:13.076Z,58.02
2022-09-23T20:46:47.806Z,57.96
2022-09-23T20:49:17.598Z,58.09
2022-09-23T20:51:47.919Z,58.33
2022-09-23T20:54:19.213Z,58.20
2022-09-23T20:56:48.730Z,58.31
2022-09-23T20:59:18.936Z,58.54
2022-09-23T21:01:47.873Z,58.54
2022-09-23T21:04:16.023Z,58.65
2022-09-23T21:06:43.734Z,58.61
2022-09-23T21:09:11.751Z,58.69
2022-09-23T21:11:40.665Z,58.78
2022-09-23T21:14:08.705Z,58.87
2022-09-23T21:16:37.067Z,58.88
2022-09-23T21:19:08.250Z,58.97
2022-09-23T21:21:36.373Z,58.99
2022-09-23T21:24:33.035Z,59.07
2022-09-23T21:26:52.371Z,59.16
2022-09-23T21:29:20.144Z,59.27
2022-09-23T21:31:49.664Z,59.54
2022-09-23T21:34:18.340Z,59.54
2022-09-23T21:36:48.148Z,59.51
2022-09-23T21:39:16.040Z,59.65
2022-09-23T21:41:43.813Z,59.62
2022-09-23T21:44:11.991Z,59.70
2022-09-23T21:46:39.836Z,59.75
2022-09-23T21:49:09.093Z,59.90
2022-09-23T21:51:41.010Z,59.88
2022-09-23T21:54:14.194Z,60.14
2022-09-23T21:56:43.165Z,60.14
2022-09-23T21:59:11.437Z,60.18
2022-09-23T22:01:44.520Z,60.12
2022-09-23T22:04:20.710Z,60.30
2022-09-23T22:06:49.253Z,60.09
2022-09-23T22:09:19.163Z,60.24
2022-09-23T22:12:07.758Z,60.37
2022-09-23T22:14:38.989Z,60.48
2022-09-23T22:17:10.372Z,60.59
2022-09-23T22:19:45.793Z,60.66
2022-09-23T22:22:16.494Z,60.86
2022-09-23T22:24:46.637Z,60.76
2022-09-23T22:27:18.262Z,60.91
2022-09-23T22:30:04.654Z,60.88
2022-09-23T22:32:43.472Z,60.90
2022-09-23T22:35:13.888Z,61.05
2022-09-23T22:37:41.766Z,61.15
2022-09-23T22:40:14.549Z,61.07
2022-09-23T22:42:42.885Z,61.16
2022-09-23T22:45:13.327Z,61.08
2022-09-23T22:47:45.511Z,61.35
2022-09-23T22:50:14.754Z,61.48
2022-09-23T22:52:43.106Z,61.37
2022-09-23T22:55:11.875Z,61.34
2022-09-23T22:57:39.612Z,61.44
2022-09-23T23:00:08.503Z,61.44
2022-09-23T23:02:36.843Z,61.39
2022-09-23T23:05:05.011Z,61.57
2022-09-23T23:07:36.147Z,61.57
2022-09-23T23:10:04.746Z,61.66
2022-09-23T23:12:33.562Z,61.69
2022-09-23T23:15:01.266Z,61.77
2022-09-23T23:17:29.839Z,61.78
2022-09-23T23:19:58.087Z,61.82
2022-09-23T23:22:28.417Z,61.80
2022-09-23T23:24:56.674Z,61.83
2022-09-23T23:27:24.491Z,61.92
2022-09-23T23:29:52.434Z,62.03
2022-09-23T23:32:20.139Z,62.00
2022-09-23T23:34:47.856Z,62.16
2022-09-23T23:37:20.074Z,62.17
2022-09-23T23:39:48.951Z,62.24
2022-09-23T23:42:17.252Z,62.15
2022-09-23T23:44:45.390Z,62.43
2022-09-23T23:47:13.322Z,62.52
2022-09-23T23:49:41.182Z,62.35
2022-09-23T23:52:08.985Z,62.48
2022-09-23T23:54:36.694Z,62.33
2022-09-23T23:57:04.497Z,62.61
2022-09-23T23:59:34.399Z,62.44
